Time;durP1;ratioP1;P1;durP2;ratioP2;P2;SDS_P1;SDS_P2;PMS_P1;PMS_P2;Temp;Humidity;BMP_temperature;BMP_pressure;BME280_temperature;BME280_humidity;BME280_pressure;Samples;Min_cycle;Max_cycle;Signal;HPM_P1;HPM_P2
2019/11/07 00:01:48;;;;;;;5;3;;;;;;;;;;;;;
2019/11/07 00:04:23;;;;;;;4.9;3.1;;;;;;;;;;;;;
2019/11/07 00:06:51;;;;;;;6.8;3.3;;;;;;;;;;;;;
2019/11/07 00:09:37;;;;;;;5.6;3.6;;;;;;;;;;;;;
2019/11/07 00:12:21;;;;;;;5.4;3.3;;;;;;;;;;;;;
2019/11/07 00:14:29;;;;;;;5.7;3.2;;;;;;;;;;;;;
2019/11/07 00:16:56;;;;;;;3.5;3;;;;;;;;;;;;;
2019/11/07 00:19:19;;;;;;;4.1;3;;;;;;;;;;;;;
2019/11/07 00:22:02;;;;;;;7.1;3.2;;;;;;;;;;;;;
2019/11/07 00:24:16;;;;;;;7.5;4.9;;;;;;;;;;;;;
2019/11/07 00:26:44;;;;;;;5.7;4.1;;;;;;;;;;;;;
2019/11/07 00:29:10;;;;;;;5.8;4.4;;;;;;;;;;;;;
2019/11/07 00:31:34;;;;;;;5.7;4.1;;;;;;;;;;;;;
2019/11/07 00:34:02;;;;;;;6.8;4.2;;;;;;;;;;;;;
2019/11/07 00:36:25;;;;;;;10.8;4;;;;;;;;;;;;;
2019/11/07 00:38:51;;;;;;;5.7;3.8;;;;;;;;;;;;;
2019/11/07 00:41:20;;;;;;;5.2;3;;;;;;;;;;;;;
2019/11/07 00:43:43;;;;;;;3.3;2.9;;;;;;;;;;;;;
2019/11/07 00:46:08;;;;;;;4.2;3.2;;;;;;;;;;;;;
2019/11/07 00:48:32;;;;;;;2.4;2.2;;;;;;;;;;;;;
2019/11/07 00:51:01;;;;;;;4.6;3;;;;;;;;;;;;;
2019/11/07 00:53:28;;;;;;;4.9;3.2;;;;;;;;;;;;;
2019/11/07 00:55:48;;;;;;;5.3;3.3;;;;;;;;;;;;;
2019/11/07 00:58:14;;;;;;;5.1;3.6;;;;;;;;;;;;;
2019/11/07 01:00:43;;;;;;;6.3;4.7;;;;;;;;;;;;;
2019/11/07 01:03:19;;;;;;;6.8;5.3;;;;;;;;;;;;;
2019/11/07 01:05:43;;;;;;;12.8;8.3;;;;;;;;;;;;;
2019/11/07 01:08:10;;;;;;;12.9;8.9;;;;;;;;;;;;;
2019/11/07 01:10:35;;;;;;;11.5;7.4;;;;;;;;;;;;;
2019/11/07 01:15:28;;;;;;;5;4;;;;;;;;;;;;;
2019/11/07 01:17:56;;;;;;;4.1;3.2;;;;;;;;;;;;;
2019/11/07 01:20:20;;;;;;;5.4;3.6;;;;;;;;;;;;;
2019/11/07 01:22:50;;;;;;;6.7;4.1;;;;;;;;;;;;;
2019/11/07 01:25:10;;;;;;;6.9;4.5;;;;;;;;;;;;;
2019/11/07 01:27:36;;;;;;;6.5;4.6;;;;;;;;;;;;;
2019/11/07 01:32:33;;;;;;;4.6;3.1;;;;;;;;;;;;;
2019/11/07 01:35:00;;;;;;;3.8;2.6;;;;;;;;;;;;;
2019/11/07 01:37:23;;;;;;;3.7;2.8;;;;;;;;;;;;;
2019/11/07 01:39:51;;;;;;;4.6;2.5;;;;;;;;;;;;;
2019/11/07 01:42:13;;;;;;;4.3;3.4;;;;;;;;;;;;;
2019/11/07 01:44:42;;;;;;;5;3.5;;;;;;;;;;;;;
2019/11/07 01:47:15;;;;;;;7.2;3.5;;;;;;;;;;;;;
2019/11/07 01:49:39;;;;;;;3.7;2.9;;;;;;;;;;;;;
2019/11/07 01:52:02;;;;;;;2.8;2.4;;;;;;;;;;;;;
2019/11/07 01:54:26;;;;;;;2.5;1.9;;;;;;;;;;;;;
2019/11/07 01:56:51;;;;;;;2.7;2.2;;;;;;;;;;;;;
2019/11/07 01:59:22;;;;;;;3.5;2.1;;;;;;;;;;;;;
2019/11/07 02:01:47;;;;;;;2.7;2;;;;;;;;;;;;;
2019/11/07 02:04:07;;;;;;;3.1;2.4;;;;;;;;;;;;;
2019/11/07 02:06:32;;;;;;;3.3;2.3;;;;;;;;;;;;;
2019/11/07 02:09:03;;;;;;;5.7;3;;;;;;;;;;;;;
2019/11/07 02:11:28;;;;;;;4.2;3;;;;;;;;;;;;;
2019/11/07 02:13:54;;;;;;;4.1;2.9;;;;;;;;;;;;;
2019/11/07 02:16:19;;;;;;;5.1;3.6;;;;;;;;;;;;;
2019/11/07 02:18:45;;;;;;;4.7;2.7;;;;;;;;;;;;;
2019/11/07 02:21:15;;;;;;;2;1.8;;;;;;;;;;;;;
2019/11/07 02:23:37;;;;;;;4.7;2.4;;;;;;;;;;;;;
2019/11/07 02:26:11;;;;;;;2.1;1.9;;;;;;;;;;;;;
2019/11/07 02:28:33;;;;;;;4.4;2.5;;;;;;;;;;;;;
2019/11/07 02:31:02;;;;;;;3.5;3;;;;;;;;;;;;;
2019/11/07 02:33:26;;;;;;;6.7;3.5;;;;;;;;;;;;;
2019/11/07 02:35:56;;;;;;;3.3;2.8;;;;;;;;;;;;;
2019/11/07 02:38:17;;;;;;;5.9;3.6;;;;;;;;;;;;;
2019/11/07 02:40:45;;;;;;;2.9;2;;;;;;;;;;;;;
2019/11/07 02:43:16;;;;;;;2.6;2;;;;;;;;;;;;;
2019/11/07 02:45:45;;;;;;;3.2;2.6;;;;;;;;;;;;;
2019/11/07 02:48:21;;;;;;;4.4;2.4;;;;;;;;;;;;;
2019/11/07 02:50:48;;;;;;;2.5;2.3;;;;;;;;;;;;;
2019/11/07 02:53:20;;;;;;;5;2.8;;;;;;;;;;;;;
2019/11/07 02:55:40;;;;;;;3.3;2.5;;;;;;;;;;;;;
2019/11/07 02:58:05;;;;;;;2.8;2.2;;;;;;;;;;;;;
2019/11/07 03:00:35;;;;;;;3.4;2.4;;;;;;;;;;;;;
2019/11/07 03:02:58;;;;;;;4.1;2.6;;;;;;;;;;;;;
2019/11/07 03:05:24;;;;;;;2.4;2;;;;;;;;;;;;;
2019/11/07 03:08:15;;;;;;;3.2;2.3;;;;;;;;;;;;;
2019/11/07 03:10:27;;;;;;;2.9;2.2;;;;;;;;;;;;;
2019/11/07 03:12:56;;;;;;;2.8;2.2;;;;;;;;;;;;;
2019/11/07 03:15:21;;;;;;;2.9;2.4;;;;;;;;;;;;;
2019/11/07 03:17:45;;;;;;;2.5;2.3;;;;;;;;;;;;;
2019/11/07 03:20:10;;;;;;;2.4;2;;;;;;;;;;;;;
2019/11/07 03:22:41;;;;;;;3.3;2.2;;;;;;;;;;;;;
2019/11/07 03:25:20;;;;;;;2.6;1.8;;;;;;;;;;;;;
2019/11/07 03:27:37;;;;;;;2.5;2.1;;;;;;;;;;;;;
2019/11/07 03:30:01;;;;;;;2.7;1.9;;;;;;;;;;;;;
2019/11/07 03:32:26;;;;;;;4;2.3;;;;;;;;;;;;;
2019/11/07 03:34:57;;;;;;;2.5;2.3;;;;;;;;;;;;;
2019/11/07 03:37:26;;;;;;;3.2;2.4;;;;;;;;;;;;;
2019/11/07 03:39:46;;;;;;;2.9;2.2;;;;;;;;;;;;;
2019/11/07 03:42:16;;;;;;;3.4;2.8;;;;;;;;;;;;;
2019/11/07 03:44:46;;;;;;;3.7;2.7;;;;;;;;;;;;;
2019/11/07 03:47:08;;;;;;;3.9;2.5;;;;;;;;;;;;;
2019/11/07 03:49:31;;;;;;;6.8;4;;;;;;;;;;;;;
2019/11/07 03:51:59;;;;;;;5.8;2.7;;;;;;;;;;;;;
2019/11/07 03:54:27;;;;;;;2.4;2.2;;;;;;;;;;;;;
2019/11/07 03:56:52;;;;;;;3.1;2.8;;;;;;;;;;;;;
2019/11/07 03:59:25;;;;;;;4.4;3;;;;;;;;;;;;;
2019/11/07 04:02:39;;;;;;;4.6;3;;;;;;;1.9;92.59473;926.3122;;;;
2019/11/07 04:05:18;;;;;;;3.3;3;;;;;;;1.82;92.7998;926.2836;;;;
2019/11/07 04:07:42;;;;;;;4;3;;;;;;;1.79;92.81641;926.2302;;;;
2019/11/07 04:10:07;;;;;;;4.1;2.6;;;;;;;1.66;93.22363;926.1079;;;;
2019/11/07 04:12:44;;;;;;;5;2.8;;;;;;;1.59;93.47754;926.1297;;;;
2019/11/07 04:15:12;;;;;;;3.2;2.7;;;;;;;1.65;93.19922;926.1195;;;;
2019/11/07 04:17:49;;;;;;;4.1;3;;;;;;;1.67;93.02344;926.226;;;;
2019/11/07 04:20:13;;;;;;;4.1;2.7;;;;;;;1.67;92.75781;926.1844;;;;
2019/11/07 04:22:49;;;;;;;3.3;2.7;;;;;;;1.67;92.54297;926.1418;;;;
2019/11/07 04:25:16;;;;;;;3.9;3.1;;;;;;;1.61;92.83496;926.0795;;;;
2019/11/07 04:30:17;;;;;;;5.2;4;;;;;;;1.79;92.30176;926.0905;;;;
2019/11/07 04:32:48;;;;;;;7.2;4;;;;;;;1.84;92.02148;926.1789;;;;
2019/11/07 04:35:11;;;;;;;6.3;3.6;;;;;;;1.72;92.15234;926.201;;;;
2019/11/07 04:37:39;;;;;;;5.3;3.7;;;;;;;1.64;93.35352;926.1539;;;;
2019/11/07 04:40:11;;;;;;;5.6;3.4;;;;;;;1.72;92.94629;926.1572;;;;
2019/11/07 04:42:45;;;;;;;5.3;3;;;;;;;1.7;92.45898;926.1716;;;;
2019/11/07 04:45:14;;;;;;;6.8;4.4;;;;;;;1.77;92.75488;926.199;;;;
2019/11/07 04:47:44;;;;;;;10.4;7.6;;;;;;;1.83;92.01953;926.1331;;;;
2019/11/07 04:50:08;;;;;;;13.8;10.4;;;;;;;1.71;92.41895;926.1908;;;;
2019/11/07 04:52:44;;;;;;;9.5;7.7;;;;;;;1.67;92.90039;926.076;;;;
2019/11/07 04:55:22;;;;;;;8.3;6.2;;;;;;;1.71;92.22852;926.1155;;;;
2019/11/07 04:57:52;;;;;;;8.8;6;;;;;;;1.86;92.2168;926.0994;;;;
2019/11/07 05:00:21;;;;;;;5.4;4;;;;;;;2.07;90.70605;926.0555;;;;
2019/11/07 05:02:47;;;;;;;4.9;3.7;;;;;;;2.07;90.06836;925.999;;;;
2019/11/07 05:05:19;;;;;;;11.9;8.9;;;;;;;2.06;89.91895;925.976;;;;
2019/11/07 05:07:54;;;;;;;4.5;3.4;;;;;;;1.84;90.78125;926.0126;;;;
2019/11/07 05:10:23;;;;;;;5;3;;;;;;;1.88;90.96777;925.9508;;;;
2019/11/07 05:12:48;;;;;;;4.3;3.5;;;;;;;1.86;91.40918;925.976;;;;
2019/11/07 05:15:22;;;;;;;64.8;52.6;;;;;;;2.03;90.51758;925.9697;;;;
2019/11/07 05:17:54;;;;;;;16.4;13.6;;;;;;;2.14;89.64551;925.9689;;;;
2019/11/07 05:20:28;;;;;;;5.2;3.6;;;;;;;2.07;90.00098;925.9307;;;;
2019/11/07 05:22:51;;;;;;;9.4;7.7;;;;;;;1.87;91.68164;925.9019;;;;
2019/11/07 05:25:32;;;;;;;6.9;6.2;;;;;;;1.99;91.58398;925.8706;;;;
2019/11/07 05:27:59;;;;;;;7.1;5.1;;;;;;;1.98;92.08398;925.8571;;;;
2019/11/07 05:30:27;;;;;;;4.8;4.2;;;;;;;2;92.60449;925.7628;;;;
2019/11/07 05:33:00;;;;;;;4.5;3.7;;;;;;;2.05;92.75977;925.9434;;;;
2019/11/07 05:35:19;;;;;;;4.4;4;;;;;;;1.94;92.84863;925.9127;;;;
2019/11/07 05:37:45;;;;;;;4.3;3.5;;;;;;;1.67;93.51563;925.8674;;;;
2019/11/07 05:40:21;;;;;;;4.3;3.5;;;;;;;1.63;93.75391;925.7833;;;;
2019/11/07 05:42:49;;;;;;;3.8;3.2;;;;;;;1.63;93.74121;925.9142;;;;
2019/11/07 05:45:20;;;;;;;6.1;5.5;;;;;;;1.48;93.9209;925.8078;;;;
2019/11/07 05:47:48;;;;;;;4;3.2;;;;;;;1.48;93.46484;925.7805;;;;
2019/11/07 05:50:21;;;;;;;51.2;43.3;;;;;;;1.37;93.98633;925.7556;;;;
2019/11/07 05:52:55;;;;;;;12.1;9.7;;;;;;;1.24;94.49316;925.7456;;;;
2019/11/07 05:55:27;;;;;;;15;13.1;;;;;;;1.39;94.08008;925.7547;;;;
2019/11/07 05:57:53;;;;;;;34.5;26.5;;;;;;;1.39;94.16895;925.8197;;;;
2019/11/07 06:00:21;;;;;;;49.8;39.7;;;;;;;1.29;94.66113;925.7766;;;;
2019/11/07 06:03:14;;;;;;;24.7;17.7;;;;;;;1.28;95.08398;925.7786;;;;
2019/11/07 06:05:46;;;;;;;75;49.4;;;;;;;1.39;94.65039;925.8189;;;;
2019/11/07 06:08:10;;;;;;;6;4.2;;;;;;;1.74;92.62598;925.8217;;;;
2019/11/07 06:10:44;;;;;;;12.3;7.7;;;;;;;1.67;92.99023;925.8995;;;;
2019/11/07 06:13:11;;;;;;;8;6.2;;;;;;;1.74;92.4248;925.9041;;;;
2019/11/07 06:15:38;;;;;;;10.2;7;;;;;;;1.75;92.31445;925.9122;;;;
2019/11/07 06:18:02;;;;;;;12;7.1;;;;;;;1.67;92.97949;925.9341;;;;
2019/11/07 06:20:29;;;;;;;8.8;6;;;;;;;1.64;92.86133;925.942;;;;
2019/11/07 06:22:58;;;;;;;13;7.1;;;;;;;1.66;92.86719;926.0822;;;;
2019/11/07 06:25:31;;;;;;;12.1;8.2;;;;;;;1.85;93.21973;926.1509;;;;
2019/11/07 06:28:02;;;;;;;13.8;7.2;;;;;;;1.88;92.26563;926.1501;;;;
2019/11/07 06:30:28;;;;;;;12.6;5.5;;;;;;;1.86;92.2373;926.1613;;;;
2019/11/07 06:32:58;;;;;;;6;4.1;;;;;;;1.91;91.80176;926.1641;;;;
2019/11/07 06:35:31;;;;;;;8.4;5;;;;;;;2.06;91.21973;926.0364;;;;
2019/11/07 06:37:59;;;;;;;20.4;11.2;;;;;;;2.26;90.49902;926.157;;;;
2019/11/07 06:40:32;;;;;;;18.9;11.5;;;;;;;2.44;89.42773;926.1907;;;;
2019/11/07 06:43:09;;;;;;;25.8;15.8;;;;;;;2.55;88.7002;926.1749;;;;
2019/11/07 06:45:31;;;;;;;18;8.5;;;;;;;2.66;88.1084;926.1891;;;;
2019/11/07 06:48:23;;;;;;;23.4;15.2;;;;;;;2.47;88.40332;926.178;;;;
2019/11/07 06:50:49;;;;;;;11.6;7.8;;;;;;;2.23;89.9668;926.1375;;;;
2019/11/07 06:53:34;;;;;;;11;6.1;;;;;;;2.34;89.82129;926.1649;;;;
2019/11/07 06:56:03;;;;;;;9.9;6.1;;;;;;;2.41;90.47559;926.158;;;;
2019/11/07 06:58:34;;;;;;;5.4;3;;;;;;;2.69;89.8623;926.0984;;;;
2019/11/07 07:01:12;;;;;;;17.6;13.4;;;;;;;2.77;89.375;926.0779;;;;
2019/11/07 07:03:43;;;;;;;4.3;2.7;;;;;;;2.86;88.90039;926.0178;;;;
2019/11/07 07:06:08;;;;;;;3.4;2.4;;;;;;;3.1;88.43359;925.9648;;;;
2019/11/07 07:08:37;;;;;;;6.5;2.6;;;;;;;3.26;86.9873;926.1298;;;;
2019/11/07 07:11:03;;;;;;;4.6;3.9;;;;;;;3.39;87.02246;926.065;;;;
2019/11/07 07:13:35;;;;;;;5.6;2.8;;;;;;;3.6;86.73047;926.1324;;;;
2019/11/07 07:16:21;;;;;;;4.3;3;;;;;;;3.65;86.39258;926.0714;;;;
2019/11/07 07:18:49;;;;;;;4.6;2.1;;;;;;;4.01;85.43164;926.0244;;;;
2019/11/07 07:21:16;;;;;;;4.1;2.2;;;;;;;4.32;84.34473;925.9972;;;;
2019/11/07 07:23:40;;;;;;;5.4;2.3;;;;;;;4.47;83.83496;925.9986;;;;
2019/11/07 07:26:08;;;;;;;3.1;2.2;;;;;;;4.62;82.90625;925.9509;;;;
2019/11/07 07:29:16;;;;;;;5.8;2.6;;;;;;;4.62;82.61328;925.918;;;;
2019/11/07 07:31:38;;;;;;;6.8;3.1;;;;;;;4.75;82.23438;925.9478;;;;
2019/11/07 07:34:11;;;;;;;6.4;3.3;;;;;;;4.82;82.49609;925.9078;;;;
2019/11/07 07:36:45;;;;;;;6.4;4.2;;;;;;;5.4;80.33887;925.8563;;;;
2019/11/07 07:39:13;;;;;;;5.1;3.9;;;;;;;5.85;78.15332;925.8582;;;;
2019/11/07 07:41:40;;;;;;;7.7;3.9;;;;;;;5.9;77.82422;925.7103;;;;
2019/11/07 07:44:04;;;;;;;5;3.2;;;;;;;6.07;77.33594;925.7488;;;;
2019/11/07 07:46:50;;;;;;;4.2;2.9;;;;;;;6.46;76.12793;925.7402;;;;
2019/11/07 07:49:16;;;;;;;4.2;3.3;;;;;;;6.8;74.42285;925.7037;;;;
2019/11/07 07:51:42;;;;;;;5.8;3.2;;;;;;;6.83;73.60156;925.5428;;;;
2019/11/07 07:54:12;;;;;;;4.6;2.7;;;;;;;6.71;74.9502;925.5652;;;;
2019/11/07 07:56:37;;;;;;;6.8;3.8;;;;;;;7;74.09375;925.5488;;;;
2019/11/07 07:59:02;;;;;;;8.7;5.8;;;;;;;6.62;75.3877;925.5846;;;;
2019/11/07 08:01:29;;;;;;;8;5.9;;;;;;;6.55;75.91895;925.5864;;;;
2019/11/07 08:03:57;;;;;;;8;3.1;;;;;;;6.9;75.0625;925.5833;;;;
2019/11/07 08:06:30;;;;;;;8.4;3.5;;;;;;;7.44;73.12891;925.5335;;;;
2019/11/07 08:09:00;;;;;;;5.8;2.8;;;;;;;7.6;71.5918;925.5517;;;;
2019/11/07 08:11:25;;;;;;;4.4;3;;;;;;;7.47;72;925.5209;;;;
2019/11/07 08:13:56;;;;;;;7.1;3.7;;;;;;;8.09;70.34277;925.5497;;;;
2019/11/07 08:16:20;;;;;;;8.5;5.8;;;;;;;8.57;68.67188;925.4936;;;;
2019/11/07 08:18:50;;;;;;;5;3.4;;;;;;;9.13;66.49707;925.4567;;;;
2019/11/07 08:21:18;;;;;;;4.9;3.1;;;;;;;9.09;65.97656;925.4324;;;;
2019/11/07 08:23:48;;;;;;;3.7;2.5;;;;;;;8.6;67.70996;925.4443;;;;
2019/11/07 08:26:17;;;;;;;5.6;2.3;;;;;;;8.54;67.96191;925.408;;;;
2019/11/07 08:28:42;;;;;;;6.6;2;;;;;;;8.11;69.74414;925.3982;;;;
2019/11/07 08:31:14;;;;;;;2.2;1.5;;;;;;;7.89;69.74316;925.3342;;;;
2019/11/07 08:33:39;;;;;;;5.9;2.2;;;;;;;8.24;68.58496;925.288;;;;
2019/11/07 08:36:05;;;;;;;3.8;2.2;;;;;;;8.35;68.92188;925.2285;;;;
2019/11/07 08:38:31;;;;;;;4.5;3.1;;;;;;;7.94;70.06934;925.2335;;;;
2019/11/07 08:40:58;;;;;;;8;2.9;;;;;;;7.62;71.99121;925.1647;;;;
2019/11/07 08:43:28;;;;;;;5.7;2.3;;;;;;;7.57;71.21094;925.1042;;;;
2019/11/07 08:45:57;;;;;;;3;1.5;;;;;;;7.25;71.31543;925.0873;;;;
2019/11/07 08:48:26;;;;;;;4.3;2.2;;;;;;;7.06;74.80859;925.026;;;;
2019/11/07 08:50:56;;;;;;;6.4;2.2;;;;;;;6.89;76.39746;924.9963;;;;
2019/11/07 08:53:20;;;;;;;7.8;2.1;;;;;;;7.02;75.08301;924.9904;;;;
2019/11/07 08:55:48;;;;;;;13;2.7;;;;;;;6.89;74.62988;924.9694;;;;
2019/11/07 08:58:15;;;;;;;5.9;2;;;;;;;6.76;76.49805;925.0835;;;;
2019/11/07 09:00:48;;;;;;;3.3;1.9;;;;;;;6.71;76.13867;924.9727;;;;
2019/11/07 09:03:23;;;;;;;8.6;2.6;;;;;;;6.9;76.70508;925.0129;;;;
2019/11/07 09:05:53;;;;;;;7.5;2.3;;;;;;;7.07;76.19043;924.9738;;;;
2019/11/07 09:08:18;;;;;;;5.5;2.1;;;;;;;7.17;73.13867;924.8385;;;;
2019/11/07 09:10:47;;;;;;;4.6;1.9;;;;;;;7.16;74.30469;924.8828;;;;
2019/11/07 09:13:11;;;;;;;12.9;2;;;;;;;7.42;72.96484;924.7622;;;;
2019/11/07 09:15:36;;;;;;;4.7;2.3;;;;;;;7.47;74.29004;924.7955;;;;
2019/11/07 09:18:06;;;;;;;3.6;1.7;;;;;;;7.47;70.80957;924.7336;;;;
2019/11/07 09:20:36;;;;;;;4.4;1.5;;;;;;;7.46;71.89453;924.7274;;;;
2019/11/07 09:22:59;;;;;;;5.9;1.8;;;;;;;7.47;72.91797;924.8176;;;;
2019/11/07 09:25:27;;;;;;;11;2;;;;;;;7.73;74.01758;924.812;;;;
2019/11/07 09:27:57;;;;;;;4.4;1.6;;;;;;;7.74;72.02051;924.7517;;;;
2019/11/07 09:30:29;;;;;;;2.3;1.7;;;;;;;7.83;71.20801;924.7202;;;;
2019/11/07 09:32:55;;;;;;;4.8;1.6;;;;;;;8.05;71.06348;924.6508;;;;
2019/11/07 09:35:36;;;;;;;4.4;1.6;;;;;;;8.15;68.50195;924.6473;;;;
2019/11/07 09:38:08;;;;;;;5.8;1.7;;;;;;;8.41;70.24805;924.6614;;;;
2019/11/07 09:40:42;;;;;;;3.1;1.3;;;;;;;8.59;65.37891;924.6192;;;;
2019/11/07 09:43:10;;;;;;;3.4;1.6;;;;;;;8.51;66.27539;924.5832;;;;
2019/11/07 09:45:36;;;;;;;3.6;1.5;;;;;;;9.04;64.92285;924.5633;;;;
2019/11/07 09:48:06;;;;;;;5.2;1.7;;;;;;;9.09;63.45117;924.5168;;;;
2019/11/07 09:50:32;;;;;;;4.6;1.8;;;;;;;9.12;64.85645;924.3745;;;;
2019/11/07 09:53:11;;;;;;;2.8;1.7;;;;;;;8.96;62.8291;924.3381;;;;
2019/11/07 09:55:50;;;;;;;2.5;1.4;;;;;;;9.24;62.80273;924.2674;;;;
2019/11/07 09:58:09;;;;;;;6.9;1.7;;;;;;;9.55;64.16699;924.2737;;;;
2019/11/07 10:00:46;;;;;;;2.1;1.1;;;;;;;9.79;62.46094;924.1929;;;;
2019/11/07 10:03:10;;;;;;;3.5;1.3;;;;;;;9.85;59.01465;924.152;;;;
2019/11/07 10:05:44;;;;;;;4.1;1.3;;;;;;;10.43;59.43652;924.0237;;;;
2019/11/07 10:08:14;;;;;;;3.9;1.4;;;;;;;10.89;54.2998;923.9055;;;;
2019/11/07 10:10:58;;;;;;;6.6;2.5;;;;;;;11.42;55.50098;923.9138;;;;
2019/11/07 10:13:21;;;;;;;8.6;2.1;;;;;;;11.52;52.88184;923.8753;;;;
2019/11/07 10:15:47;;;;;;;4.5;1.7;;;;;;;11.24;54.35742;923.813;;;;
2019/11/07 10:18:17;;;;;;;2.4;1.3;;;;;;;11.33;53.0293;923.762;;;;
2019/11/07 10:20:50;;;;;;;3.7;1.2;;;;;;;11.28;53.70996;923.825;;;;
2019/11/07 10:23:19;;;;;;;2.9;1.3;;;;;;;11.28;56.37305;923.8123;;;;
2019/11/07 10:25:45;;;;;;;1.2;0.9;;;;;;;10.93;50.00781;923.7106;;;;
2019/11/07 10:28:14;;;;;;;3.2;1.3;;;;;;;11.07;55.11133;923.7558;;;;
2019/11/07 10:30:42;;;;;;;1.2;1;;;;;;;10.89;50.89551;923.6397;;;;
2019/11/07 10:33:07;;;;;;;3.3;1.3;;;;;;;10.77;55.23242;923.6866;;;;
2019/11/07 10:35:35;;;;;;;1.5;1.1;;;;;;;10.7;54.18652;923.6119;;;;
2019/11/07 10:37:59;;;;;;;3.8;0.8;;;;;;;10.76;52.68555;923.6141;;;;
2019/11/07 10:40:28;;;;;;;1.4;0.9;;;;;;;10.76;51.79395;923.5108;;;;
2019/11/07 10:44:53;;;;;;;2.3;1;;;;;;;10.43;54.81445;923.6664;;;;
2019/11/07 10:47:24;;;;;;;2.3;1.1;;;;;;;10.54;53.12695;923.6298;;;;
2019/11/07 10:49:51;;;;;;;2.1;1;;;;;;;10.46;56.1748;923.7631;;;;
2019/11/07 10:52:15;;;;;;;3.1;1.5;;;;;;;10.59;55.3252;923.7009;;;;
2019/11/07 10:54:46;;;;;;;1.5;0.9;;;;;;;10.86;54.05762;923.6822;;;;
2019/11/07 10:57:11;;;;;;;1.8;0.9;;;;;;;11.02;53.19727;923.6736;;;;
2019/11/07 10:59:38;;;;;;;3.8;0.9;;;;;;;11.04;51.10742;923.8317;;;;
2019/11/07 11:02:04;;;;;;;3.1;1.1;;;;;;;11.53;51.95605;923.8042;;;;
2019/11/07 11:04:27;;;;;;;3.9;1;;;;;;;11.51;49.3877;923.8724;;;;
2019/11/07 11:06:57;;;;;;;2.9;0.9;;;;;;;11.57;49.52246;923.699;;;;
2019/11/07 11:09:20;;;;;;;1.5;0.7;;;;;;;11.66;49.66992;923.7065;;;;
2019/11/07 11:11:45;;;;;;;4;1.1;;;;;;;11.98;52.375;923.6294;;;;
2019/11/07 11:14:10;;;;;;;6.3;1.2;;;;;;;12.16;49.0166;923.575;;;;
2019/11/07 11:16:39;;;;;;;4.1;0.9;;;;;;;12.17;44.91504;923.5475;;;;
2019/11/07 11:19:16;;;;;;;1.6;0.9;;;;;;;12.46;49.38281;923.6834;;;;
2019/11/07 11:21:48;;;;;;;3;1;;;;;;;12.4;48.33301;923.6947;;;;
2019/11/07 11:24:21;;;;;;;1.9;1;;;;;;;12.79;47.41211;923.7578;;;;
2019/11/07 11:26:47;;;;;;;1.4;0.8;;;;;;;13.05;48.02637;923.7556;;;;
2019/11/07 11:29:17;;;;;;;1.5;0.7;;;;;;;13.14;44.89941;923.7935;;;;
2019/11/07 11:31:48;;;;;;;2.2;1;;;;;;;14.65;44.06445;923.704;;;;
2019/11/07 11:34:16;;;;;;;1.2;0.7;;;;;;;18.03;35.94922;923.7336;;;;
2019/11/07 11:36:44;;;;;;;3.3;1.1;;;;;;;19.78;32.60547;923.7047;;;;
2019/11/07 11:39:13;;;;;;;2.2;0.9;;;;;;;23.33;27.26074;923.6396;;;;
2019/11/07 11:41:39;;;;;;;2;0.8;;;;;;;24.62;23.71973;923.6314;;;;
2019/11/07 11:44:04;;;;;;;1.2;0.7;;;;;;;24.09;23.78613;923.757;;;;
2019/11/07 11:46:33;;;;;;;1.3;0.7;;;;;;;23.44;24.45703;923.7979;;;;
2019/11/07 11:48:55;;;;;;;3.2;0.7;;;;;;;19.85;27.72363;923.8644;;;;
2019/11/07 11:51:20;;;;;;;1.9;0.7;;;;;;;17.22;32.90332;923.9958;;;;
2019/11/07 11:53:55;;;;;;;2.2;0.9;;;;;;;16.62;33.16016;923.8873;;;;
2019/11/07 11:56:26;;;;;;;2.4;0.9;;;;;;;16.17;37.17383;923.9756;;;;
2019/11/07 11:58:55;;;;;;;2;0.8;;;;;;;15.14;38.47168;924.0705;;;;
2019/11/07 12:01:19;;;;;;;6.1;1.3;;;;;;;14.56;40.16016;924.1133;;;;
2019/11/07 12:04:01;;;;;;;3.6;1;;;;;;;14.44;39.46973;924.0718;;;;
2019/11/07 12:07:08;;;;;;;2;0.8;;;;;;;14.94;39.57227;924.1099;;;;
2019/11/07 12:09:12;;;;;;;1.6;1;;;;;;;17.6;34.90527;924.0455;;;;
2019/11/07 12:11:53;;;;;;;1.6;0.8;;;;;;;20.12;29.94629;924.0455;;;;
2019/11/07 12:14:33;;;;;;;4.6;1;;;;;;;17.39;33.26465;924.0266;;;;
2019/11/07 12:17:30;;;;;;;4.9;1.6;;;;;;;18.28;33.28516;924.0889;;;;
2019/11/07 12:20:15;;;;;;;1.9;1.3;;;;;;;19.25;30.41211;924.0062;;;;
2019/11/07 12:23:04;;;;;;;1.8;0.9;;;;;;;19.3;30.54297;924.0329;;;;
2019/11/07 12:25:51;;;;;;;1.1;0.8;;;;;;;18.95;30.64746;924.0895;;;;
2019/11/07 12:28:39;;;;;;;4.3;1.1;;;;;;;18.1;30.2168;924.1052;;;;
2019/11/07 12:31:13;;;;;;;4.7;0.9;;;;;;;15.84;31.95703;924.0999;;;;
2019/11/07 12:33:55;;;;;;;2.2;1;;;;;;;14.95;35.17871;924.132;;;;
2019/11/07 12:36:43;;;;;;;1.8;0.8;;;;;;;16;33.69043;924.2134;;;;
2019/11/07 12:39:16;;;;;;;2.6;0.9;;;;;;;17.48;32.91211;924.163;;;;
2019/11/07 12:42:08;;;;;;;2.8;1;;;;;;;19.15;29.05371;924.1282;;;;
2019/11/07 12:44:55;;;;;;;1.3;0.7;;;;;;;19.75;28.83691;924.207;;;;
2019/11/07 12:47:25;;;;;;;1.2;0.7;;;;;;;20.24;28.14551;924.1512;;;;
2019/11/07 12:50:14;;;;;;;3.4;1;;;;;;;19.14;28.66895;924.2852;;;;
2019/11/07 12:52:48;;;;;;;3.5;1;;;;;;;18.65;30.61523;924.3059;;;;
2019/11/07 12:55:21;;;;;;;1.3;0.8;;;;;;;17.37;31.90625;924.3876;;;;
2019/11/07 12:57:45;;;;;;;3.8;0.9;;;;;;;17.28;32.49121;924.4114;;;;
2019/11/07 13:00:20;;;;;;;2.2;0.7;;;;;;;18;31.02246;924.4302;;;;
2019/11/07 13:02:47;;;;;;;2;0.8;;;;;;;16.87;32.72754;924.4109;;;;
2019/11/07 13:05:19;;;;;;;1.5;0.8;;;;;;;16.25;35.3418;924.411;;;;
2019/11/07 13:08:17;;;;;;;3.7;1.4;;;;;;;16.38;35.69922;924.4794;;;;
2019/11/07 13:11:11;;;;;;;4.1;1.1;;;;;;;16.56;35.37793;924.5659;;;;
2019/11/07 13:13:43;;;;;;;3.7;1.2;;;;;;;17.03;33.94434;924.6447;;;;
2019/11/07 13:16:18;;;;;;;3.9;1.2;;;;;;;18.28;34.2959;924.6426;;;;
2019/11/07 13:19:20;;;;;;;4.7;1.3;;;;;;;18.82;34.41992;924.6389;;;;
2019/11/07 13:22:03;;;;;;;2.7;1;;;;;;;19.35;31.61816;924.6029;;;;
2019/11/07 13:24:22;;;;;;;4.1;1.2;;;;;;;18.29;33.86719;924.6752;;;;
2019/11/07 13:26:44;;;;;;;1.8;1;;;;;;;17.6;34.45313;924.671;;;;
2019/11/07 13:29:11;;;;;;;6;1.2;;;;;;;16.9;35.35938;924.6443;;;;
2019/11/07 13:31:37;;;;;;;3.9;1;;;;;;;16.26;38.76758;924.7447;;;;
2019/11/07 13:34:09;;;;;;;8.6;1.5;;;;;;;16.08;40.9248;924.7498;;;;
2019/11/07 13:36:37;;;;;;;15.8;2.1;;;;;;;15.86;42.01367;924.7213;;;;
2019/11/07 13:39:07;;;;;;;11.9;1.9;;;;;;;15.44;42.63184;924.7955;;;;
2019/11/07 13:41:36;;;;;;;38.2;24.6;;;;;;;14.84;43.58789;924.9135;;;;
2019/11/07 13:44:08;;;;;;;4.4;1.7;;;;;;;14.3;46.26367;924.9494;;;;
2019/11/07 13:46:38;;;;;;;3.5;1.9;;;;;;;14;49.21289;924.9703;;;;
2019/11/07 13:49:04;;;;;;;6;1.7;;;;;;;14.03;49.60742;924.9617;;;;
2019/11/07 13:51:28;;;;;;;4.1;1.4;;;;;;;14.06;50.41699;924.9162;;;;
2019/11/07 13:53:59;;;;;;;3.1;1.4;;;;;;;14;51.06543;924.8893;;;;
2019/11/07 13:56:29;;;;;;;7.1;3.7;;;;;;;14.07;50.12988;924.9352;;;;
2019/11/07 13:58:53;;;;;;;12.6;8.5;;;;;;;14.09;51.13379;924.945;;;;
2019/11/07 14:02:20;;;;;;;7.2;3.9;;;;;;;14.15;51.52148;924.9684;;;;
2019/11/07 14:05:19;;;;;;;3.2;1.8;;;;;;;14.07;51.63867;925.0305;;;;
2019/11/07 14:07:42;;;;;;;4.3;1.7;;;;;;;13.9;52.15723;925.1138;;;;
2019/11/07 14:10:10;;;;;;;4.7;1.7;;;;;;;13.99;51.55957;925.1337;;;;
2019/11/07 14:12:42;;;;;;;2.5;1.3;;;;;;;13.99;52.27344;925.1954;;;;
2019/11/07 14:15:12;;;;;;;2.7;1.5;;;;;;;13.92;52.18359;925.1947;;;;
2019/11/07 14:17:39;;;;;;;5.9;1.8;;;;;;;13.86;52.5332;925.2363;;;;
2019/11/07 14:20:09;;;;;;;3.6;1.7;;;;;;;13.65;53.13965;925.249;;;;
2019/11/07 14:22:38;;;;;;;6.1;1.8;;;;;;;13.58;54.04102;925.2798;;;;
2019/11/07 14:25:01;;;;;;;3.3;1.8;;;;;;;13.52;53.67676;925.2955;;;;
2019/11/07 14:27:31;;;;;;;4.8;1.9;;;;;;;13.58;54.09766;925.3111;;;;
2019/11/07 14:29:56;;;;;;;3.3;2;;;;;;;13.5;54.59277;925.3745;;;;
2019/11/07 14:32:25;;;;;;;4.7;2;;;;;;;13.46;55.66895;925.3385;;;;
2019/11/07 14:34:54;;;;;;;5.9;1.8;;;;;;;13.28;56.37109;925.3358;;;;
2019/11/07 14:37:18;;;;;;;5.6;1.9;;;;;;;13.11;56.57715;925.4021;;;;
2019/11/07 14:39:44;;;;;;;6.2;1.6;;;;;;;12.79;57.77637;925.4752;;;;
2019/11/07 14:42:15;;;;;;;4.5;1.6;;;;;;;12.53;57.47754;925.5118;;;;
2019/11/07 14:44:42;;;;;;;4.5;1.7;;;;;;;12.42;58.40332;925.5203;;;;
2019/11/07 14:47:14;;;;;;;3.7;1.7;;;;;;;12.21;58.71875;925.5577;;;;
2019/11/07 14:49:38;;;;;;;2.4;1.4;;;;;;;12.28;58.71777;925.5391;;;;
2019/11/07 14:52:14;;;;;;;3.9;1.9;;;;;;;12.26;58.91992;925.6106;;;;
2019/11/07 14:54:42;;;;;;;6;1.7;;;;;;;12.07;59.71973;925.6559;;;;
2019/11/07 14:57:14;;;;;;;3.4;1.5;;;;;;;11.94;60.11426;925.6313;;;;
2019/11/07 14:59:38;;;;;;;4;1.6;;;;;;;12.03;60.17285;925.6158;;;;
2019/11/07 15:02:10;;;;;;;3.8;1.6;;;;;;;12.15;59.52441;925.6705;;;;
2019/11/07 15:04:45;;;;;;;3.8;1.8;;;;;;;12.24;59.43359;925.6333;;;;
2019/11/07 15:07:10;;;;;;;3.8;1.7;;;;;;;12.21;59.53223;925.6423;;;;
2019/11/07 15:09:41;;;;;;;2;1.4;;;;;;;12.31;59.40918;925.6329;;;;
2019/11/07 15:12:09;;;;;;;3.1;1.5;;;;;;;12.3;59.73926;925.653;;;;
2019/11/07 15:14:34;;;;;;;2.9;1.4;;;;;;;12.21;60.46094;925.6103;;;;
2019/11/07 15:17:04;;;;;;;3;1.5;;;;;;;12.19;60.70996;925.7169;;;;
2019/11/07 15:19:40;;;;;;;4.1;1.6;;;;;;;12.11;62.20117;925.6958;;;;
2019/11/07 15:22:04;;;;;;;3.1;2;;;;;;;11.97;62.75293;925.808;;;;
2019/11/07 15:24:44;;;;;;;5.4;2;;;;;;;11.98;62.58203;925.76;;;;
2019/11/07 15:27:16;;;;;;;6.3;2.3;;;;;;;11.98;62.88184;925.7136;;;;
2019/11/07 15:29:49;;;;;;;7.3;2.3;;;;;;;11.95;63.18652;925.813;;;;
2019/11/07 15:32:16;;;;;;;7.5;2.4;;;;;;;11.79;62.54492;925.8049;;;;
2019/11/07 15:34:47;;;;;;;7.4;2.5;;;;;;;11.72;62.80957;925.7889;;;;
2019/11/07 15:37:13;;;;;;;7.9;2.7;;;;;;;11.71;62.97949;925.8225;;;;
2019/11/07 15:39:42;;;;;;;9;3.1;;;;;;;11.65;62.86719;925.8099;;;;
2019/11/07 15:42:12;;;;;;;7.4;2.9;;;;;;;11.59;64.32324;925.7819;;;;
2019/11/07 15:44:55;;;;;;;6.9;2.9;;;;;;;11.55;64.47852;925.8127;;;;
2019/11/07 15:47:27;;;;;;;10.1;3.4;;;;;;;11.49;64.57227;925.7786;;;;
2019/11/07 15:49:57;;;;;;;25.8;5.4;;;;;;;11.33;66.50391;925.8546;;;;
2019/11/07 15:52:34;;;;;;;23.2;3.7;;;;;;;11.17;67.54199;925.8413;;;;
2019/11/07 15:55:02;;;;;;;11.3;2.7;;;;;;;11.03;68.2998;925.8582;;;;
2019/11/07 15:57:30;;;;;;;14.2;3.4;;;;;;;10.91;68.3252;925.83;;;;
2019/11/07 16:00:23;;;;;;;15.6;3.1;;;;;;;10.94;67.78125;925.8431;;;;
2019/11/07 16:02:51;;;;;;;11;3.7;;;;;;;10.96;67.40723;925.8819;;;;
2019/11/07 16:05:17;;;;;;;10.8;3.6;;;;;;;10.95;67.3252;925.9147;;;;
2019/11/07 16:07:43;;;;;;;11.9;3.9;;;;;;;10.93;68.63672;925.9372;;;;
2019/11/07 16:10:13;;;;;;;10.7;3.8;;;;;;;10.88;68.94922;925.9219;;;;
2019/11/07 16:15:19;;;;;;;17.3;3.9;;;;;;;10.66;69.46191;926.1008;;;;